createdAt,value
2017-07-21T20:06:26.664Z,50.16
2017-07-21T20:11:32.026Z,47.54
2017-07-21T20:13:58.686Z,47.49
2017-07-21T20:16:25.362Z,47.58
2017-07-21T20:18:52.053Z,47.44
2017-07-21T20:21:18.731Z,47.46
2017-07-21T20:23:45.419Z,47.61
2017-07-21T20:26:12.113Z,47.55
2017-07-21T20:28:38.786Z,47.50
2017-07-21T20:31:05.473Z,47.61
2017-07-21T20:33:32.173Z,48.01
2017-07-21T20:35:58.858Z,47.89
2017-07-21T20:38:25.532Z,47.69
2017-07-21T20:40:52.205Z,47.75
2017-07-21T21:01:46.941Z,48.38
2017-07-21T21:04:13.658Z,48.50
2017-07-21T21:06:40.378Z,48.33
2017-07-21T21:09:07.063Z,48.48
2017-07-21T21:11:33.783Z,48.42
2017-07-21T21:14:00.478Z,48.40
2017-07-21T21:16:27.229Z,48.97
2017-07-21T21:18:53.913Z,48.61
2017-07-21T21:21:20.587Z,48.83
2017-07-21T21:23:47.283Z,48.73
2017-07-21T21:26:13.966Z,48.56
2017-07-21T21:28:40.644Z,48.79
2017-07-21T21:31:07.321Z,49.13
2017-07-21T21:33:33.994Z,49.28
2017-07-21T21:36:00.673Z,49.84
2017-07-21T21:38:27.355Z,49.84
2017-07-21T21:40:54.048Z,49.45
2017-07-21T21:43:20.753Z,49.59
2017-07-21T21:45:47.430Z,49.66
2017-07-21T21:48:14.088Z,50.05
2017-07-21T21:50:40.766Z,49.80
2017-07-21T21:53:07.475Z,50.45
2017-07-21T21:55:34.184Z,50.07
2017-07-21T21:58:00.884Z,50.25
2017-07-21T22:00:27.623Z,51.02
2017-07-21T22:02:54.317Z,50.82
2017-07-21T22:05:21.017Z,51.19
2017-07-21T22:07:47.693Z,51.40
2017-07-21T22:10:14.377Z,51.32
2017-07-21T22:12:41.069Z,51.27
2017-07-21T22:15:07.778Z,51.98
2017-07-21T22:17:34.462Z,51.52
2017-07-21T22:20:01.142Z,52.07
2017-07-21T22:22:27.844Z,52.60
2017-07-21T22:24:54.521Z,52.33
2017-07-21T22:27:21.202Z,53.60
2017-07-21T22:29:47.872Z,52.64
2017-07-21T22:32:14.535Z,52.84
2017-07-21T22:34:41.234Z,52.99
2017-07-21T22:37:07.903Z,53.12
2017-07-21T22:39:34.579Z,52.74
2017-07-21T22:42:01.235Z,53.04
2017-07-21T22:44:27.932Z,52.43
2017-07-21T22:46:54.599Z,53.01
2017-07-21T22:49:21.291Z,52.87
2017-07-21T22:51:47.962Z,52.46
2017-07-21T22:54:14.623Z,53.10
2017-07-21T22:56:41.313Z,53.18
2017-07-21T22:59:08.002Z,53.40
2017-07-21T23:01:34.664Z,52.51
2017-07-21T23:04:01.332Z,52.77
2017-07-21T23:06:28.012Z,52.76
2017-07-21T23:08:54.687Z,53.83
2017-07-21T23:11:21.365Z,53.79
2017-07-21T23:13:48.050Z,53.13
2017-07-21T23:16:14.707Z,53.90
2017-07-21T23:18:41.399Z,53.83
2017-07-21T23:21:08.105Z,53.12
2017-07-21T23:23:34.787Z,53.89
2017-07-21T23:26:01.462Z,53.58
2017-07-21T23:28:28.143Z,54.31
2017-07-21T23:30:54.822Z,53.65
2017-07-21T23:33:21.495Z,54.80
2017-07-21T23:35:48.165Z,54.95
2017-07-21T23:38:14.850Z,54.75
2017-07-21T23:40:41.531Z,54.60
2017-07-21T23:43:08.207Z,54.43
2017-07-21T23:45:34.871Z,54.88
2017-07-21T23:48:01.549Z,55.01
2017-07-21T23:50:28.214Z,54.43
2017-07-21T23:52:54.950Z,55.37
2017-07-21T23:55:21.610Z,55.50
2017-07-21T23:57:48.298Z,56.36
